sensor_id;sensor_type;location;lat;lon;timestamp;pressure;altitude;pressure_sealevel;temperature;humidity
61676;BME280;47574;52.090;5.244;2023-07-02T00:01:03;100651.0;;;22.5;56.9
61676;BME280;47574;52.090;5.244;2023-07-02T00:04:17;100656.0;;;22.62;58.17
61676;BME280;47574;52.090;5.244;2023-07-02T00:05:53;100656.0;;;22.43;57.54
61676;BME280;47574;52.090;5.244;2023-07-02T00:07:29;100650.0;;;22.65;56.97
61676;BME280;47574;52.090;5.244;2023-07-02T00:10:43;100657.0;;;22.67;57.32
61676;BME280;47574;52.090;5.244;2023-07-02T00:12:20;100657.0;;;22.43;57.38
61676;BME280;47574;52.090;5.244;2023-07-02T00:13:56;100661.0;;;22.51;57.54
61676;BME280;47574;52.090;5.244;2023-07-02T00:15:32;100665.0;;;22.48;56.51
61676;BME280;47574;52.090;5.244;2023-07-02T00:18:45;100671.0;;;22.54;56.38
61676;BME280;47574;52.090;5.244;2023-07-02T00:20:21;100673.0;;;22.43;56.04
61676;BME280;47574;52.090;5.244;2023-07-02T00:21:57;100678.0;;;22.41;55.88
61676;BME280;47574;52.090;5.244;2023-07-02T00:25:12;100683.0;;;22.58;55.88
61676;BME280;47574;52.090;5.244;2023-07-02T00:26:49;100684.0;;;22.63;55.86
61676;BME280;47574;52.090;5.244;2023-07-02T00:28:26;100681.0;;;22.33;55.93
61676;BME280;47574;52.090;5.244;2023-07-02T00:30:02;100684.0;;;22.14;55.51
61676;BME280;47574;52.090;5.244;2023-07-02T00:33:16;100680.0;;;22.17;55.96
61676;BME280;47574;52.090;5.244;2023-07-02T00:34:51;100684.0;;;22.41;57.04
61676;BME280;47574;52.090;5.244;2023-07-02T00:36:29;100681.0;;;22.45;57.64
61676;BME280;47574;52.090;5.244;2023-07-02T00:39:42;100684.0;;;22.3;57.31
61676;BME280;47574;52.090;5.244;2023-07-02T00:41:18;100678.0;;;22.18;56.48
61676;BME280;47574;52.090;5.244;2023-07-02T00:42:54;100682.0;;;22.34;57.25
61676;BME280;47574;52.090;5.244;2023-07-02T00:46:06;100680.0;;;22.12;56.43
61676;BME280;47574;52.090;5.244;2023-07-02T00:47:42;100682.0;;;22.35;56.45
61676;BME280;47574;52.090;5.244;2023-07-02T00:49:21;100681.0;;;22.36;56.7
61676;BME280;47574;52.090;5.244;2023-07-02T00:50:58;100681.0;;;22.22;54.6
61676;BME280;47574;52.090;5.244;2023-07-02T00:54:11;100682.0;;;22.3;55.29
61676;BME280;47574;52.090;5.244;2023-07-02T00:55:47;100683.0;;;22.3;55.65
61676;BME280;47574;52.090;5.244;2023-07-02T00:57:23;100687.0;;;22.4;55.55
61676;BME280;47574;52.090;5.244;2023-07-02T01:00:35;100690.0;;;22.36;54.85
61676;BME280;47574;52.090;5.244;2023-07-02T01:02:12;100694.0;;;22.33;54.23
61676;BME280;47574;52.090;5.244;2023-07-02T01:03:52;100689.0;;;22.35;53.94
61676;BME280;47574;52.090;5.244;2023-07-02T01:07:05;100686.0;;;22.17;54.09
61676;BME280;47574;52.090;5.244;2023-07-02T01:08:42;100692.0;;;22.07;53.56
61676;BME280;47574;52.090;5.244;2023-07-02T01:10:18;100685.0;;;21.86;53.09
61676;BME280;47574;52.090;5.244;2023-07-02T01:11:57;100690.0;;;21.91;53.17
61676;BME280;47574;52.090;5.244;2023-07-02T01:15:12;100687.0;;;21.78;53.45
61676;BME280;47574;52.090;5.244;2023-07-02T01:16:48;100690.0;;;21.9;53.31
61676;BME280;47574;52.090;5.244;2023-07-02T01:18:25;100694.0;;;22.08;54.44
61676;BME280;47574;52.090;5.244;2023-07-02T01:21:41;100695.0;;;21.91;54.24
61676;BME280;47574;52.090;5.244;2023-07-02T01:23:19;100695.0;;;21.81;52.84
61676;BME280;47574;52.090;5.244;2023-07-02T01:24:56;100697.0;;;21.67;53.0
61676;BME280;47574;52.090;5.244;2023-07-02T01:26:33;100697.0;;;21.54;52.09
61676;BME280;47574;52.090;5.244;2023-07-02T01:29:47;100700.0;;;21.8;52.79
61676;BME280;47574;52.090;5.244;2023-07-02T01:31:26;100701.0;;;21.57;52.45
61676;BME280;47574;52.090;5.244;2023-07-02T01:33:02;100700.0;;;21.41;51.99
61676;BME280;47574;52.090;5.244;2023-07-02T01:36:15;100697.0;;;21.36;51.75
61676;BME280;47574;52.090;5.244;2023-07-02T01:37:51;100699.0;;;21.43;52.35
61676;BME280;47574;52.090;5.244;2023-07-02T01:39:27;100695.0;;;21.6;52.11
61676;BME280;47574;52.090;5.244;2023-07-02T01:42:39;100692.0;;;21.73;52.61
61676;BME280;47574;52.090;5.244;2023-07-02T01:44:15;100698.0;;;21.65;52.87
61676;BME280;47574;52.090;5.244;2023-07-02T01:45:52;100698.0;;;21.44;53.07
61676;BME280;47574;52.090;5.244;2023-07-02T01:47:29;100698.0;;;21.62;53.6
61676;BME280;47574;52.090;5.244;2023-07-02T01:50:42;100699.0;;;21.49;53.63
61676;BME280;47574;52.090;5.244;2023-07-02T01:52:18;100701.0;;;21.58;53.47
61676;BME280;47574;52.090;5.244;2023-07-02T01:53:54;100695.0;;;21.37;52.06
61676;BME280;47574;52.090;5.244;2023-07-02T01:57:06;100701.0;;;21.49;52.67
61676;BME280;47574;52.090;5.244;2023-07-02T01:58:44;100698.0;;;21.5;52.47
61676;BME280;47574;52.090;5.244;2023-07-02T02:00:20;100701.0;;;21.48;53.09
61676;BME280;47574;52.090;5.244;2023-07-02T02:03:34;100705.0;;;21.59;53.9
61676;BME280;47574;52.090;5.244;2023-07-02T02:05:11;100710.0;;;21.45;53.03
61676;BME280;47574;52.090;5.244;2023-07-02T02:06:47;100708.0;;;21.49;54.62
61676;BME280;47574;52.090;5.244;2023-07-02T02:08:23;100708.0;;;21.59;54.03
61676;BME280;47574;52.090;5.244;2023-07-02T02:11:39;100709.0;;;21.6;54.08
61676;BME280;47574;52.090;5.244;2023-07-02T02:13:15;100710.0;;;21.46;53.7
61676;BME280;47574;52.090;5.244;2023-07-02T02:14:51;100710.0;;;21.52;53.66
61676;BME280;47574;52.090;5.244;2023-07-02T02:18:04;100708.0;;;21.54;54.15
61676;BME280;47574;52.090;5.244;2023-07-02T02:19:40;100706.0;;;21.44;54.1
61676;BME280;47574;52.090;5.244;2023-07-02T02:21:17;100709.0;;;21.36;53.69
61676;BME280;47574;52.090;5.244;2023-07-02T02:24:30;100709.0;;;21.26;53.95
61676;BME280;47574;52.090;5.244;2023-07-02T02:26:06;100713.0;;;21.25;53.61
61676;BME280;47574;52.090;5.244;2023-07-02T02:27:42;100713.0;;;21.26;53.34
61676;BME280;47574;52.090;5.244;2023-07-02T02:29:19;100723.0;;;21.23;54.47
61676;BME280;47574;52.090;5.244;2023-07-02T02:32:31;100724.0;;;21.07;53.69
61676;BME280;47574;52.090;5.244;2023-07-02T02:34:07;100724.0;;;20.96;54.06
61676;BME280;47574;52.090;5.244;2023-07-02T02:35:44;100723.0;;;21.1;53.76
61676;BME280;47574;52.090;5.244;2023-07-02T02:38:56;100723.0;;;21.02;53.67
61676;BME280;47574;52.090;5.244;2023-07-02T02:40:32;100722.0;;;21.03;53.75
61676;BME280;47574;52.090;5.244;2023-07-02T02:42:08;100724.0;;;21.2;53.57
61676;BME280;47574;52.090;5.244;2023-07-02T02:45:22;100725.0;;;21.19;53.72
61676;BME280;47574;52.090;5.244;2023-07-02T02:46:58;100728.0;;;21.11;53.84
61676;BME280;47574;52.090;5.244;2023-07-02T02:48:34;100725.0;;;20.95;54.59
61676;BME280;47574;52.090;5.244;2023-07-02T02:51:49;100724.0;;;20.9;54.76
61676;BME280;47574;52.090;5.244;2023-07-02T02:53:25;100725.0;;;21.06;54.21
61676;BME280;47574;52.090;5.244;2023-07-02T02:55:01;100727.0;;;20.84;54.43
61676;BME280;47574;52.090;5.244;2023-07-02T02:56:38;100727.0;;;20.89;54.02
61676;BME280;47574;52.090;5.244;2023-07-02T02:59:51;100732.0;;;21.08;54.71
61676;BME280;47574;52.090;5.244;2023-07-02T03:01:28;100730.0;;;20.83;54.24
61676;BME280;47574;52.090;5.244;2023-07-02T03:03:04;100737.0;;;21.02;53.56
61676;BME280;47574;52.090;5.244;2023-07-02T03:06:16;100737.0;;;20.71;53.39
61676;BME280;47574;52.090;5.244;2023-07-02T03:07:53;100739.0;;;20.76;54.06
61676;BME280;47574;52.090;5.244;2023-07-02T03:09:29;100745.0;;;20.73;54.41
61676;BME280;47574;52.090;5.244;2023-07-02T03:12:43;100748.0;;;20.79;54.25
61676;BME280;47574;52.090;5.244;2023-07-02T03:14:19;100751.0;;;20.57;54.31
61676;BME280;47574;52.090;5.244;2023-07-02T03:15:55;100750.0;;;20.45;54.64
61676;BME280;47574;52.090;5.244;2023-07-02T03:17:31;100748.0;;;20.45;54.39
61676;BME280;47574;52.090;5.244;2023-07-02T03:20:44;100749.0;;;20.53;54.25
61676;BME280;47574;52.090;5.244;2023-07-02T03:22:21;100743.0;;;20.41;53.39
61676;BME280;47574;52.090;5.244;2023-07-02T03:23:57;100746.0;;;20.23;54.21
61676;BME280;47574;52.090;5.244;2023-07-02T03:27:09;100751.0;;;20.36;54.8
61676;BME280;47574;52.090;5.244;2023-07-02T03:28:45;100749.0;;;20.54;54.16
61676;BME280;47574;52.090;5.244;2023-07-02T03:30:22;100748.0;;;20.65;53.71
61676;BME280;47574;52.090;5.244;2023-07-02T03:33:35;100750.0;;;20.77;53.39
61676;BME280;47574;52.090;5.244;2023-07-02T03:35:11;100744.0;;;20.43;53.36
61676;BME280;47574;52.090;5.244;2023-07-02T03:36:48;100750.0;;;20.65;53.5
61676;BME280;47574;52.090;5.244;2023-07-02T03:38:24;100755.0;;;20.66;53.12
61676;BME280;47574;52.090;5.244;2023-07-02T03:41:36;100757.0;;;20.45;53.0
61676;BME280;47574;52.090;5.244;2023-07-02T03:43:12;100752.0;;;20.27;53.88
61676;BME280;47574;52.090;5.244;2023-07-02T03:44:49;100756.0;;;20.72;53.13
61676;BME280;47574;52.090;5.244;2023-07-02T03:48:02;100751.0;;;20.49;52.64
61676;BME280;47574;52.090;5.244;2023-07-02T03:49:39;100755.0;;;20.43;52.93
61676;BME280;47574;52.090;5.244;2023-07-02T03:51:16;100758.0;;;20.46;52.66
61676;BME280;47574;52.090;5.244;2023-07-02T03:54:27;100760.0;;;20.54;53.16
61676;BME280;47574;52.090;5.244;2023-07-02T03:56:04;100759.0;;;20.45;52.71
61676;BME280;47574;52.090;5.244;2023-07-02T03:57:40;100761.0;;;20.59;52.46
61676;BME280;47574;52.090;5.244;2023-07-02T03:59:16;100764.0;;;20.38;53.07
61676;BME280;47574;52.090;5.244;2023-07-02T04:02:28;100767.0;;;20.63;52.83
61676;BME280;47574;52.090;5.244;2023-07-02T04:04:04;100769.0;;;20.62;52.38
61676;BME280;47574;52.090;5.244;2023-07-02T04:05:40;100771.0;;;20.62;52.4
61676;BME280;47574;52.090;5.244;2023-07-02T04:08:53;100768.0;;;20.53;52.63
61676;BME280;47574;52.090;5.244;2023-07-02T04:10:29;100770.0;;;20.55;53.26
61676;BME280;47574;52.090;5.244;2023-07-02T04:12:07;100776.0;;;20.52;52.24
61676;BME280;47574;52.090;5.244;2023-07-02T04:15:19;100780.0;;;20.43;52.83
61676;BME280;47574;52.090;5.244;2023-07-02T04:16:55;100787.0;;;20.55;52.31
61676;BME280;47574;52.090;5.244;2023-07-02T04:18:33;100788.0;;;20.5;52.78
61676;BME280;47574;52.090;5.244;2023-07-02T04:20:10;100793.0;;;20.61;52.71
61676;BME280;47574;52.090;5.244;2023-07-02T04:23:23;100794.0;;;20.6;52.46
61676;BME280;47574;52.090;5.244;2023-07-02T04:24:59;100790.0;;;20.75;52.67
61676;BME280;47574;52.090;5.244;2023-07-02T04:26:36;100791.0;;;20.74;52.18
61676;BME280;47574;52.090;5.244;2023-07-02T04:29:49;100790.0;;;20.74;51.68
61676;BME280;47574;52.090;5.244;2023-07-02T04:31:25;100788.0;;;20.36;52.2
61676;BME280;47574;52.090;5.244;2023-07-02T04:33:02;100792.0;;;20.43;52.97
61676;BME280;47574;52.090;5.244;2023-07-02T04:36:15;100790.0;;;20.39;52.25
61676;BME280;47574;52.090;5.244;2023-07-02T04:37:51;100795.0;;;20.41;52.95
61676;BME280;47574;52.090;5.244;2023-07-02T04:39:28;100795.0;;;20.45;53.16
61676;BME280;47574;52.090;5.244;2023-07-02T04:42:41;100799.0;;;20.29;53.27
61676;BME280;47574;52.090;5.244;2023-07-02T04:44:18;100800.0;;;20.04;53.88
61676;BME280;47574;52.090;5.244;2023-07-02T04:45:54;100800.0;;;20.0;53.31
61676;BME280;47574;52.090;5.244;2023-07-02T04:47:31;100806.0;;;20.16;53.28
61676;BME280;47574;52.090;5.244;2023-07-02T04:50:45;100805.0;;;20.34;53.64
61676;BME280;47574;52.090;5.244;2023-07-02T04:52:21;100802.0;;;20.25;53.51
61676;BME280;47574;52.090;5.244;2023-07-02T04:53:59;100803.0;;;20.29;53.36
61676;BME280;47574;52.090;5.244;2023-07-02T04:57:11;100812.0;;;20.07;52.99
61676;BME280;47574;52.090;5.244;2023-07-02T04:58:47;100816.0;;;20.18;53.0
61676;BME280;47574;52.090;5.244;2023-07-02T05:00:23;100814.0;;;20.31;52.48
61676;BME280;47574;52.090;5.244;2023-07-02T05:02:00;100813.0;;;20.49;52.32
61676;BME280;47574;52.090;5.244;2023-07-02T05:05:13;100817.0;;;20.39;52.7
61676;BME280;47574;52.090;5.244;2023-07-02T05:06:50;100813.0;;;20.16;52.54
61676;BME280;47574;52.090;5.244;2023-07-02T05:08:26;100817.0;;;20.09;52.44
61676;BME280;47574;52.090;5.244;2023-07-02T05:11:39;100821.0;;;20.41;52.3
61676;BME280;47574;52.090;5.244;2023-07-02T05:13:15;100816.0;;;20.74;51.51
61676;BME280;47574;52.090;5.244;2023-07-02T05:14:52;100818.0;;;20.65;52.04
61676;BME280;47574;52.090;5.244;2023-07-02T05:18:05;100816.0;;;20.61;52.48
61676;BME280;47574;52.090;5.244;2023-07-02T05:19:42;100819.0;;;20.61;52.11
61676;BME280;47574;52.090;5.244;2023-07-02T05:21:20;100816.0;;;20.65;51.89
61676;BME280;47574;52.090;5.244;2023-07-02T05:22:58;100822.0;;;20.72;51.77
61676;BME280;47574;52.090;5.244;2023-07-02T05:26:11;100822.0;;;20.72;51.61
61676;BME280;47574;52.090;5.244;2023-07-02T05:27:47;100823.0;;;20.92;51.42
61676;BME280;47574;52.090;5.244;2023-07-02T05:29:24;100820.0;;;20.86;50.91
61676;BME280;47574;52.090;5.244;2023-07-02T05:32:37;100821.0;;;20.87;50.83
61676;BME280;47574;52.090;5.244;2023-07-02T05:34:13;100823.0;;;20.77;51.07
61676;BME280;47574;52.090;5.244;2023-07-02T05:35:50;100828.0;;;21.04;51.06
61676;BME280;47574;52.090;5.244;2023-07-02T05:39:03;100832.0;;;20.97;50.58
61676;BME280;47574;52.090;5.244;2023-07-02T05:40:40;100839.0;;;20.92;50.72
61676;BME280;47574;52.090;5.244;2023-07-02T05:42:16;100837.0;;;20.9;50.09
61676;BME280;47574;52.090;5.244;2023-07-02T05:43:52;100838.0;;;20.94;50.55
61676;BME280;47574;52.090;5.244;2023-07-02T05:47:06;100837.0;;;20.84;50.65
61676;BME280;47574;52.090;5.244;2023-07-02T05:48:42;100841.0;;;21.08;50.46
61676;BME280;47574;52.090;5.244;2023-07-02T05:50:19;100841.0;;;20.99;50.72
61676;BME280;47574;52.090;5.244;2023-07-02T05:53:32;100841.0;;;21.25;49.64
61676;BME280;47574;52.090;5.244;2023-07-02T05:55:08;100850.0;;;21.3;49.47
61676;BME280;47574;52.090;5.244;2023-07-02T05:56:44;100849.0;;;21.01;50.08
61676;BME280;47574;52.090;5.244;2023-07-02T05:59:59;100853.0;;;21.12;49.59
61676;BME280;47574;52.090;5.244;2023-07-02T06:01:36;100853.0;;;21.03;49.91
61676;BME280;47574;52.090;5.244;2023-07-02T06:03:12;100852.0;;;21.21;49.98
61676;BME280;47574;52.090;5.244;2023-07-02T06:04:49;100853.0;;;21.09;49.61
61676;BME280;47574;52.090;5.244;2023-07-02T06:08:03;100855.0;;;21.07;49.68
61676;BME280;47574;52.090;5.244;2023-07-02T06:09:39;100856.0;;;21.15;50.37
61676;BME280;47574;52.090;5.244;2023-07-02T06:11:16;100859.0;;;21.41;50.07
61676;BME280;47574;52.090;5.244;2023-07-02T06:14:29;100864.0;;;21.21;49.99
61676;BME280;47574;52.090;5.244;2023-07-02T06:16:05;100862.0;;;21.38;49.56
61676;BME280;47574;52.090;5.244;2023-07-02T06:17:42;100859.0;;;21.55;49.19
61676;BME280;47574;52.090;5.244;2023-07-02T06:20:55;100859.0;;;21.33;49.61
61676;BME280;47574;52.090;5.244;2023-07-02T06:22:32;100863.0;;;21.53;49.35
61676;BME280;47574;52.090;5.244;2023-07-02T06:24:08;100869.0;;;21.82;48.77
61676;BME280;47574;52.090;5.244;2023-07-02T06:25:44;100862.0;;;21.34;48.8
61676;BME280;47574;52.090;5.244;2023-07-02T06:28:58;100866.0;;;21.38;48.71
61676;BME280;47574;52.090;5.244;2023-07-02T06:30:34;100861.0;;;21.41;48.71
61676;BME280;47574;52.090;5.244;2023-07-02T06:32:10;100871.0;;;21.75;47.89
61676;BME280;47574;52.090;5.244;2023-07-02T06:35:22;100865.0;;;20.89;48.67
61676;BME280;47574;52.090;5.244;2023-07-02T06:36:59;100874.0;;;21.38;48.33
61676;BME280;47574;52.090;5.244;2023-07-02T06:38:36;100878.0;;;21.46;47.25
61676;BME280;47574;52.090;5.244;2023-07-02T06:41:49;100874.0;;;21.59;47.31
61676;BME280;47574;52.090;5.244;2023-07-02T06:43:25;100887.0;;;21.94;47.02
61676;BME280;47574;52.090;5.244;2023-07-02T06:45:02;100872.0;;;21.37;47.41
61676;BME280;47574;52.090;5.244;2023-07-02T06:46:39;100883.0;;;21.52;46.79
61676;BME280;47574;52.090;5.244;2023-07-02T06:49:52;100887.0;;;21.81;46.35
61676;BME280;47574;52.090;5.244;2023-07-02T06:51:29;100891.0;;;21.82;45.6
61676;BME280;47574;52.090;5.244;2023-07-02T06:53:06;100894.0;;;21.89;46.69
61676;BME280;47574;52.090;5.244;2023-07-02T06:56:19;100899.0;;;21.75;47.15
61676;BME280;47574;52.090;5.244;2023-07-02T06:57:55;100898.0;;;21.81;46.68
61676;BME280;47574;52.090;5.244;2023-07-02T06:59:31;100905.0;;;21.59;46.65
61676;BME280;47574;52.090;5.244;2023-07-02T07:02:43;100908.0;;;21.46;46.82
61676;BME280;47574;52.090;5.244;2023-07-02T07:04:20;100914.0;;;21.49;46.19
61676;BME280;47574;52.090;5.244;2023-07-02T07:05:57;100925.0;;;21.54;44.72
61676;BME280;47574;52.090;5.244;2023-07-02T07:07:33;100914.0;;;21.68;44.89
61676;BME280;47574;52.090;5.244;2023-07-02T07:10:47;100915.0;;;21.7;44.58
61676;BME280;47574;52.090;5.244;2023-07-02T07:12:25;100918.0;;;21.89;44.88
61676;BME280;47574;52.090;5.244;2023-07-02T07:14:02;100916.0;;;22.17;44.51
61676;BME280;47574;52.090;5.244;2023-07-02T07:17:16;100918.0;;;21.98;44.94
61676;BME280;47574;52.090;5.244;2023-07-02T07:18:53;100919.0;;;22.02;44.41
61676;BME280;47574;52.090;5.244;2023-07-02T07:20:30;100930.0;;;21.73;44.44
61676;BME280;47574;52.090;5.244;2023-07-02T07:23:44;100927.0;;;21.93;43.77
61676;BME280;47574;52.090;5.244;2023-07-02T07:25:21;100930.0;;;21.96;44.06
61676;BME280;47574;52.090;5.244;2023-07-02T07:26:58;100951.0;;;21.99;43.09
61676;BME280;47574;52.090;5.244;2023-07-02T07:28:35;100943.0;;;21.76;42.71
61676;BME280;47574;52.090;5.244;2023-07-02T07:31:49;100941.0;;;21.77;42.7
61676;BME280;47574;52.090;5.244;2023-07-02T07:33:25;100944.0;;;21.9;42.57
61676;BME280;47574;52.090;5.244;2023-07-02T07:35:01;100939.0;;;21.71;42.9
61676;BME280;47574;52.090;5.244;2023-07-02T07:38:15;100944.0;;;22.0;41.86
61676;BME280;47574;52.090;5.244;2023-07-02T07:39:52;100947.0;;;22.4;41.69
61676;BME280;47574;52.090;5.244;2023-07-02T07:41:29;100943.0;;;22.18;42.22
61676;BME280;47574;52.090;5.244;2023-07-02T07:44:44;100948.0;;;21.81;40.92
61676;BME280;47574;52.090;5.244;2023-07-02T07:46:20;100944.0;;;22.19;40.89
61676;BME280;47574;52.090;5.244;2023-07-02T07:47:57;100940.0;;;22.37;40.67
61676;BME280;47574;52.090;5.244;2023-07-02T07:49:33;100951.0;;;22.2;40.28
61676;BME280;47574;52.090;5.244;2023-07-02T07:52:45;100944.0;;;22.37;39.39
61676;BME280;47574;52.090;5.244;2023-07-02T07:54:23;100951.0;;;22.27;41.14
61676;BME280;47574;52.090;5.244;2023-07-02T07:55:59;100955.0;;;22.28;41.68
61676;BME280;47574;52.090;5.244;2023-07-02T07:59:14;100955.0;;;22.45;41.67
61676;BME280;47574;52.090;5.244;2023-07-02T08:00:50;100953.0;;;22.15;41.31
61676;BME280;47574;52.090;5.244;2023-07-02T08:02:26;100956.0;;;21.84;41.05
61676;BME280;47574;52.090;5.244;2023-07-02T08:04:03;100956.0;;;21.74;41.04
61676;BME280;47574;52.090;5.244;2023-07-02T08:07:16;100949.0;;;22.16;41.29
61676;BME280;47574;52.090;5.244;2023-07-02T08:08:52;100952.0;;;21.82;40.31
61676;BME280;47574;52.090;5.244;2023-07-02T08:10:30;100956.0;;;21.61;40.03
61676;BME280;47574;52.090;5.244;2023-07-02T08:13:43;100958.0;;;22.25;39.74
61676;BME280;47574;52.090;5.244;2023-07-02T08:15:21;100955.0;;;22.44;40.17
61676;BME280;47574;52.090;5.244;2023-07-02T08:16:58;100957.0;;;22.43;40.56
61676;BME280;47574;52.090;5.244;2023-07-02T08:20:12;100969.0;;;22.64;40.43
61676;BME280;47574;52.090;5.244;2023-07-02T08:21:49;100969.0;;;22.54;39.06
61676;BME280;47574;52.090;5.244;2023-07-02T08:23:26;100971.0;;;22.18;39.96
61676;BME280;47574;52.090;5.244;2023-07-02T08:25:04;100982.0;;;22.05;40.17
61676;BME280;47574;52.090;5.244;2023-07-02T08:28:16;100984.0;;;21.95;39.44
61676;BME280;47574;52.090;5.244;2023-07-02T08:29:53;100983.0;;;22.29;38.86
61676;BME280;47574;52.090;5.244;2023-07-02T08:31:30;100980.0;;;22.04;39.39
61676;BME280;47574;52.090;5.244;2023-07-02T08:34:44;100967.0;;;22.28;39.33
61676;BME280;47574;52.090;5.244;2023-07-02T08:36:21;100977.0;;;21.92;39.19
61676;BME280;47574;52.090;5.244;2023-07-02T08:37:58;100969.0;;;21.96;39.42
61676;BME280;47574;52.090;5.244;2023-07-02T08:41:13;100983.0;;;22.4;39.26
61676;BME280;47574;52.090;5.244;2023-07-02T08:42:49;100978.0;;;22.41;39.67
61676;BME280;47574;52.090;5.244;2023-07-02T08:44:26;100978.0;;;22.3;38.74
61676;BME280;47574;52.090;5.244;2023-07-02T08:46:02;100986.0;;;22.22;39.17
61676;BME280;47574;52.090;5.244;2023-07-02T08:49:16;100988.0;;;22.75;38.1
61676;BME280;47574;52.090;5.244;2023-07-02T08:50:52;100989.0;;;22.87;38.64
61676;BME280;47574;52.090;5.244;2023-07-02T08:52:29;100980.0;;;22.88;38.64
61676;BME280;47574;52.090;5.244;2023-07-02T08:55:42;100977.0;;;23.09;39.6
61676;BME280;47574;52.090;5.244;2023-07-02T08:57:19;100980.0;;;23.04;39.39
61676;BME280;47574;52.090;5.244;2023-07-02T08:58:56;100980.0;;;23.03;38.42
61676;BME280;47574;52.090;5.244;2023-07-02T09:00:32;100987.0;;;23.06;38.46
61676;BME280;47574;52.090;5.244;2023-07-02T09:03:45;100989.0;;;23.12;38.76
61676;BME280;47574;52.090;5.244;2023-07-02T09:05:22;100992.0;;;23.12;37.93
61676;BME280;47574;52.090;5.244;2023-07-02T09:07:07;100996.0;;;22.59;39.01
61676;BME280;47574;52.090;5.244;2023-07-02T09:10:28;100999.0;;;22.79;38.58
61676;BME280;47574;52.090;5.244;2023-07-02T09:12:07;100990.0;;;23.12;38.28
61676;BME280;47574;52.090;5.244;2023-07-02T09:13:46;100988.0;;;23.12;37.99
61676;BME280;47574;52.090;5.244;2023-07-02T09:15:24;100990.0;;;23.16;37.46
61676;BME280;47574;52.090;5.244;2023-07-02T09:18:40;100990.0;;;23.05;37.56
61676;BME280;47574;52.090;5.244;2023-07-02T09:20:17;100997.0;;;23.21;36.81
61676;BME280;47574;52.090;5.244;2023-07-02T09:21:53;100988.0;;;23.15;37.56
61676;BME280;47574;52.090;5.244;2023-07-02T09:23:34;100984.0;;;23.28;37.85
61676;BME280;47574;52.090;5.244;2023-07-02T09:26:49;100988.0;;;23.26;37.11
61676;BME280;47574;52.090;5.244;2023-07-02T09:28:26;100999.0;;;23.16;36.43
61676;BME280;47574;52.090;5.244;2023-07-02T09:30:07;100994.0;;;23.56;35.83
61676;BME280;47574;52.090;5.244;2023-07-02T09:33:23;100993.0;;;23.74;35.75
61676;BME280;47574;52.090;5.244;2023-07-02T09:35:01;100992.0;;;23.72;33.78
61676;BME280;47574;52.090;5.244;2023-07-02T09:36:37;100994.0;;;23.93;33.78
61676;BME280;47574;52.090;5.244;2023-07-02T09:38:14;100993.0;;;23.55;33.64
61676;BME280;47574;52.090;5.244;2023-07-02T09:41:29;100999.0;;;23.29;34.81
61676;BME280;47574;52.090;5.244;2023-07-02T09:43:06;101007.0;;;23.12;34.99
61676;BME280;47574;52.090;5.244;2023-07-02T09:44:42;100996.0;;;23.05;34.79
61676;BME280;47574;52.090;5.244;2023-07-02T09:47:57;100997.0;;;23.45;33.15
61676;BME280;47574;52.090;5.244;2023-07-02T09:49:36;100998.0;;;22.97;34.03
61676;BME280;47574;52.090;5.244;2023-07-02T09:51:13;100993.0;;;23.65;33.76
61676;BME280;47574;52.090;5.244;2023-07-02T09:52:50;100995.0;;;23.41;33.64
61676;BME280;47574;52.090;5.244;2023-07-02T09:56:06;100980.0;;;23.54;33.17
61676;BME280;47574;52.090;5.244;2023-07-02T09:57:44;100986.0;;;23.83;33.67
61676;BME280;47574;52.090;5.244;2023-07-02T09:59:20;100989.0;;;23.69;33.74
61676;BME280;47574;52.090;5.244;2023-07-02T10:02:35;100997.0;;;24.01;32.68
61676;BME280;47574;52.090;5.244;2023-07-02T10:04:13;100993.0;;;24.02;32.85
61676;BME280;47574;52.090;5.244;2023-07-02T10:05:50;100998.0;;;23.5;33.56
61676;BME280;47574;52.090;5.244;2023-07-02T10:09:04;100993.0;;;23.56;33.56
61676;BME280;47574;52.090;5.244;2023-07-02T10:10:42;101000.0;;;23.97;33.28
61676;BME280;47574;52.090;5.244;2023-07-02T10:12:20;101006.0;;;23.39;32.1
61676;BME280;47574;52.090;5.244;2023-07-02T10:13:57;101005.0;;;24.13;32.0
61676;BME280;47574;52.090;5.244;2023-07-02T10:17:11;101002.0;;;23.94;30.68
61676;BME280;47574;52.090;5.244;2023-07-02T10:19:15;101005.0;;;23.24;30.92
61676;BME280;47574;52.090;5.244;2023-07-02T10:20:52;101012.0;;;23.41;30.43
61676;BME280;47574;52.090;5.244;2023-07-02T10:22:28;101010.0;;;23.3;30.68
61676;BME280;47574;52.090;5.244;2023-07-02T10:25:46;101018.0;;;23.12;31.3
61676;BME280;47574;52.090;5.244;2023-07-02T10:27:41;101017.0;;;23.31;31.98
61676;BME280;47574;52.090;5.244;2023-07-02T10:29:18;101016.0;;;23.45;31.55
61676;BME280;47574;52.090;5.244;2023-07-02T10:30:56;101007.0;;;23.31;31.88
61676;BME280;47574;52.090;5.244;2023-07-02T10:34:10;101017.0;;;23.47;31.05
61676;BME280;47574;52.090;5.244;2023-07-02T10:35:48;101017.0;;;23.57;30.7
61676;BME280;47574;52.090;5.244;2023-07-02T10:37:25;101009.0;;;23.05;31.77
61676;BME280;47574;52.090;5.244;2023-07-02T10:39:02;101007.0;;;23.48;31.68
61676;BME280;47574;52.090;5.244;2023-07-02T10:42:16;101024.0;;;23.38;32.21
61676;BME280;47574;52.090;5.244;2023-07-02T10:43:53;101020.0;;;23.77;32.89
61676;BME280;47574;52.090;5.244;2023-07-02T10:45:31;101030.0;;;23.74;32.42
61676;BME280;47574;52.090;5.244;2023-07-02T10:48:51;101030.0;;;23.85;31.4
61676;BME280;47574;52.090;5.244;2023-07-02T10:50:31;101024.0;;;23.95;32.06
61676;BME280;47574;52.090;5.244;2023-07-02T10:52:07;101035.0;;;23.99;32.1
61676;BME280;47574;52.090;5.244;2023-07-02T10:53:44;101037.0;;;23.43;32.65
61676;BME280;47574;52.090;5.244;2023-07-02T10:56:58;101030.0;;;24.13;32.3
61676;BME280;47574;52.090;5.244;2023-07-02T10:58:41;101019.0;;;24.48;31.77
61676;BME280;47574;52.090;5.244;2023-07-02T11:00:19;101030.0;;;24.12;32.51
61676;BME280;47574;52.090;5.244;2023-07-02T11:01:56;101041.0;;;23.67;32.9
61676;BME280;47574;52.090;5.244;2023-07-02T11:05:10;101037.0;;;24.51;32.11
61676;BME280;47574;52.090;5.244;2023-07-02T11:06:47;101028.0;;;24.36;31.5